Terminal Aerodrome Forecast
Issued by NWS

Home | Current Version | Previous Version | Text Only | Print | Product List | Glossary On
Versions: 1 2 3 4 5 6 7 8 9 10 11 12 13 14 15
000
FTUS42 KTAE 292322
TAFECP
TAF
KECP 292322Z 3000/3024 16004KT P6SM SKC
     FM301300 22011G20KT P6SM SCT025 BKN040 PROB30 3020/3024
      VRB15G25KT 3SM TSRA BKN025CB=

USA.gov is the U.S. government's official web portal to all federal, state and local government web resources and services.